EWG2PH EDDB-EDDS
Flight info
| Callsign | EWG2PH |
|---|---|
| Flight time | 1h 3m |
| Altitude | 35000 |
| Route | EDDBRV/06R EDDB/06R DCT BBI DCT LEG DCT STG DCT |
| Aircraft | A20N/M-VGDW/C |
Departure
| Time | 2026-05-07 19:13 |
|---|---|
| Airport | Berlin Brandenburg Airport (EDDB) |
Arrival
| Time | 2026-05-07 20:16 |
|---|---|
| Airport | Stuttgart Airport (EDDS) |
| Time | Latitude | Longitude | Altitude | Speed | Heading |
|---|---|---|---|---|---|
| 2026-05-07 18:28 | 52.36061 | 13.51034 | 158 ft | 0 kts | 342° |
| 2026-05-07 18:55 | 52.36057 | 13.51036 | 158 ft | 1 kts | 342° |
| 2026-05-07 18:55 | 52.36049 | 13.51040 | 158 ft | 1 kts | 342° |
| 2026-05-07 18:55 | 52.36040 | 13.51045 | 158 ft | 2 kts | 340° |
| 2026-05-07 18:55 | 52.36034 | 13.51049 | 158 ft | 1 kts | 316° |
| 2026-05-07 18:56 | 52.36030 | 13.51056 | 158 ft | 1 kts | 289° |
| 2026-05-07 18:56 | 52.36028 | 13.51066 | 158 ft | 1 kts | 287° |
| 2026-05-07 18:56 | 52.36026 | 13.51076 | 158 ft | 1 kts | 310° |
| 2026-05-07 18:56 | 52.36022 | 13.51084 | 158 ft | 1 kts | 312° |
| 2026-05-07 18:57 | 52.36018 | 13.51091 | 158 ft | 1 kts | 314° |
| 2026-05-07 18:57 | 52.36014 | 13.51098 | 158 ft | 1 kts | 316° |
| 2026-05-07 18:57 | 52.36009 | 13.51105 | 158 ft | 1 kts | 319° |
| 2026-05-07 18:57 | 52.36003 | 13.51114 | 158 ft | 1 kts | 316° |
| 2026-05-07 18:58 | 52.35998 | 13.51120 | 158 ft | 1 kts | 288° |
| 2026-05-07 18:58 | 52.35996 | 13.51129 | 158 ft | 1 kts | 258° |
| 2026-05-07 18:58 | 52.35996 | 13.51132 | 158 ft | 0 kts | 246° |
| 2026-05-07 19:01 | 52.35989 | 13.51107 | 158 ft | 7 kts | 246° |
| 2026-05-07 19:01 | 52.35960 | 13.50998 | 158 ft | 13 kts | 244° |
| 2026-05-07 19:01 | 52.35939 | 13.50941 | 158 ft | 1 kts | 226° |
| 2026-05-07 19:01 | 52.35923 | 13.50856 | 158 ft | 12 kts | 277° |
| 2026-05-07 19:02 | 52.35909 | 13.50760 | 158 ft | 8 kts | 250° |
| 2026-05-07 19:02 | 52.35906 | 13.50746 | 158 ft | 0 kts | 250° |
| 2026-05-07 19:02 | 52.35902 | 13.50739 | 158 ft | 3 kts | 234° |
| 2026-05-07 19:03 | 52.35884 | 13.50681 | 158 ft | 7 kts | 243° |
| 2026-05-07 19:03 | 52.35861 | 13.50636 | 158 ft | 0 kts | 203° |
| 2026-05-07 19:05 | 52.35859 | 13.50634 | 158 ft | 2 kts | 203° |
| 2026-05-07 19:05 | 52.35837 | 13.50632 | 158 ft | 6 kts | 186° |
| 2026-05-07 19:05 | 52.35818 | 13.50638 | 158 ft | 5 kts | 165° |
| 2026-05-07 19:06 | 52.35771 | 13.50612 | 158 ft | 9 kts | 226° |
| 2026-05-07 19:06 | 52.35720 | 13.50406 | 158 ft | 11 kts | 253° |
| 2026-05-07 19:06 | 52.35692 | 13.50282 | 158 ft | 12 kts | 258° |
| 2026-05-07 19:07 | 52.35656 | 13.50142 | 158 ft | 15 kts | 245° |
| 2026-05-07 19:07 | 52.35624 | 13.49980 | 158 ft | 14 kts | 244° |
| 2026-05-07 19:07 | 52.35587 | 13.49830 | 158 ft | 14 kts | 231° |
| 2026-05-07 19:07 | 52.35547 | 13.49704 | 158 ft | 12 kts | 217° |
| 2026-05-07 19:08 | 52.35520 | 13.49576 | 158 ft | 14 kts | 258° |
| 2026-05-07 19:08 | 52.35485 | 13.49413 | 158 ft | 17 kts | 246° |
| 2026-05-07 19:08 | 52.35440 | 13.49222 | 158 ft | 19 kts | 249° |
| 2026-05-07 19:08 | 52.35393 | 13.49023 | 158 ft | 12 kts | 250° |
| 2026-05-07 19:09 | 52.35370 | 13.48921 | 158 ft | 7 kts | 250° |
| 2026-05-07 19:09 | 52.35348 | 13.48823 | 158 ft | 11 kts | 249° |
| 2026-05-07 19:09 | 52.35323 | 13.48662 | 158 ft | 15 kts | 264° |
| 2026-05-07 19:09 | 52.35286 | 13.48605 | 158 ft | 2 kts | 205° |
| 2026-05-07 19:10 | 52.35263 | 13.48518 | 158 ft | 11 kts | 240° |
| 2026-05-07 19:10 | 52.35193 | 13.48494 | 158 ft | 13 kts | 157° |
| 2026-05-07 19:10 | 52.35112 | 13.48560 | 157 ft | 5 kts | 117° |
| 2026-05-07 19:10 | 52.35093 | 13.48696 | 156 ft | 23 kts | 100° |
| 2026-05-07 19:11 | 52.35074 | 13.48990 | 153 ft | 28 kts | 92° |
| 2026-05-07 19:11 | 52.35079 | 13.49100 | 154 ft | 0 kts | 65° |
| 2026-05-07 19:11 | 52.35088 | 13.49129 | 154 ft | 0 kts | 64° |
| 2026-05-07 19:12 | 52.35089 | 13.49132 | 154 ft | 3 kts | 64° |
| 2026-05-07 19:12 | 52.35180 | 13.49522 | 155 ft | 75 kts | 70° |
| 2026-05-07 19:12 | 52.35441 | 13.50664 | 157 ft | 135 kts | 69° |
| 2026-05-07 19:12 | 52.35823 | 13.52280 | 395 ft | 161 kts | 70° |
| 2026-05-07 19:13 | 52.35851 | 13.54043 | 1020 ft | 154 kts | 113° |
| 2026-05-07 19:13 | 52.35105 | 13.55212 | 1673 ft | 155 kts | 160° |
| 2026-05-07 19:13 | 52.33988 | 13.55390 | 2156 ft | 171 kts | 181° |
| 2026-05-07 19:13 | 52.32744 | 13.55121 | 2554 ft | 190 kts | 191° |
| 2026-05-07 19:14 | 52.31470 | 13.54233 | 2950 ft | 209 kts | 216° |
| 2026-05-07 19:14 | 52.30292 | 13.52731 | 3434 ft | 226 kts | 217° |
| 2026-05-07 19:14 | 52.28987 | 13.51096 | 3916 ft | 247 kts | 217° |
| 2026-05-07 19:14 | 52.27578 | 13.49310 | 4601 ft | 266 kts | 221° |
| 2026-05-07 19:15 | 52.26515 | 13.46801 | 5543 ft | 274 kts | 251° |
| 2026-05-07 19:15 | 52.26238 | 13.43718 | 6636 ft | 278 kts | 270° |
| 2026-05-07 19:15 | 52.26231 | 13.40510 | 6817 ft | 280 kts | 272° |
| 2026-05-07 19:15 | 52.26266 | 13.37389 | 6924 ft | 279 kts | 272° |
| 2026-05-07 19:16 | 52.26298 | 13.34212 | 7035 ft | 280 kts | 271° |
| 2026-05-07 19:16 | 52.26072 | 13.31344 | 7135 ft | 281 kts | 252° |
| 2026-05-07 19:16 | 52.25927 | 13.30674 | 7172 ft | 285 kts | 250° |
| 2026-05-07 19:17 | 52.25135 | 13.27714 | 7535 ft | 285 kts | 244° |
| 2026-05-07 19:17 | 52.24264 | 13.24788 | 8134 ft | 287 kts | 244° |
| 2026-05-07 19:17 | 52.23400 | 13.21847 | 8752 ft | 289 kts | 245° |
| 2026-05-07 19:17 | 52.22556 | 13.18867 | 9388 ft | 290 kts | 245° |
| 2026-05-07 19:18 | 52.21723 | 13.15846 | 10028 ft | 292 kts | 246° |
| 2026-05-07 19:18 | 52.20884 | 13.12763 | 10621 ft | 306 kts | 246° |
| 2026-05-07 19:18 | 52.20001 | 13.09499 | 11215 ft | 323 kts | 246° |
| 2026-05-07 19:18 | 52.19084 | 13.06112 | 11832 ft | 338 kts | 246° |
| 2026-05-07 19:19 | 52.18119 | 13.02550 | 12469 ft | 346 kts | 246° |
| 2026-05-07 19:19 | 52.17142 | 12.98953 | 13083 ft | 349 kts | 246° |
| 2026-05-07 19:19 | 52.16152 | 12.95312 | 13728 ft | 351 kts | 246° |
| 2026-05-07 19:19 | 52.15156 | 12.91659 | 14328 ft | 354 kts | 246° |
| 2026-05-07 19:20 | 52.14151 | 12.87978 | 14923 ft | 358 kts | 246° |
| 2026-05-07 19:20 | 52.13124 | 12.84229 | 15517 ft | 365 kts | 246° |
| 2026-05-07 19:20 | 52.12085 | 12.80436 | 15729 ft | 365 kts | 247° |
| 2026-05-07 19:20 | 52.11062 | 12.76706 | 15834 ft | 366 kts | 247° |
| 2026-05-07 19:21 | 52.10025 | 12.72928 | 15933 ft | 366 kts | 247° |
| 2026-05-07 19:21 | 52.08983 | 12.69143 | 16070 ft | 366 kts | 247° |
| 2026-05-07 19:21 | 52.07940 | 12.65360 | 16442 ft | 369 kts | 246° |
| 2026-05-07 19:21 | 52.06898 | 12.61588 | 16856 ft | 375 kts | 246° |
| 2026-05-07 19:22 | 52.05827 | 12.57715 | 17282 ft | 376 kts | 247° |
| 2026-05-07 19:22 | 52.04748 | 12.53823 | 17702 ft | 378 kts | 247° |
| 2026-05-07 19:22 | 52.03662 | 12.49911 | 18139 ft | 381 kts | 247° |
| 2026-05-07 19:22 | 52.02579 | 12.46018 | 18570 ft | 383 kts | 247° |
| 2026-05-07 19:23 | 52.01477 | 12.42060 | 19047 ft | 385 kts | 247° |
| 2026-05-07 19:23 | 52.00370 | 12.38094 | 19536 ft | 387 kts | 247° |
| 2026-05-07 19:23 | 51.99255 | 12.34103 | 20035 ft | 389 kts | 247° |
| 2026-05-07 19:23 | 51.98135 | 12.30100 | 20528 ft | 390 kts | 246° |
| 2026-05-07 19:24 | 51.97020 | 12.26119 | 21046 ft | 387 kts | 246° |
| 2026-05-07 19:24 | 51.95911 | 12.22170 | 21561 ft | 391 kts | 246° |
| 2026-05-07 19:24 | 51.94776 | 12.18138 | 22110 ft | 394 kts | 246° |
| 2026-05-07 19:24 | 51.93633 | 12.14084 | 22632 ft | 398 kts | 246° |
| 2026-05-07 19:25 | 51.92477 | 12.09992 | 23184 ft | 401 kts | 246° |
| 2026-05-07 19:25 | 51.91310 | 12.05864 | 23733 ft | 404 kts | 246° |
| 2026-05-07 19:25 | 51.90134 | 12.01714 | 24200 ft | 406 kts | 246° |
| 2026-05-07 19:25 | 51.88955 | 11.97562 | 24680 ft | 408 kts | 246° |
| 2026-05-07 19:26 | 51.87768 | 11.93383 | 25166 ft | 411 kts | 246° |
| 2026-05-07 19:26 | 51.86550 | 11.89174 | 25664 ft | 414 kts | 243° |
| 2026-05-07 19:26 | 51.84972 | 11.85323 | 25853 ft | 418 kts | 230° |
| 2026-05-07 19:26 | 51.82850 | 11.82117 | 25954 ft | 420 kts | 217° |
| 2026-05-07 19:27 | 51.80326 | 11.79714 | 26113 ft | 421 kts | 208° |
| 2026-05-07 19:27 | 51.77724 | 11.77501 | 26536 ft | 423 kts | 208° |
| 2026-05-07 19:27 | 51.75125 | 11.75277 | 27175 ft | 422 kts | 209° |
| 2026-05-07 19:27 | 51.72544 | 11.73061 | 27842 ft | 420 kts | 209° |
| 2026-05-07 19:28 | 51.69966 | 11.70844 | 28525 ft | 418 kts | 209° |
| 2026-05-07 19:28 | 51.67409 | 11.68649 | 29220 ft | 415 kts | 209° |
| 2026-05-07 19:28 | 51.64924 | 11.66516 | 29915 ft | 411 kts | 209° |
| 2026-05-07 19:28 | 51.62401 | 11.64355 | 30576 ft | 408 kts | 209° |
| 2026-05-07 19:29 | 51.59911 | 11.62222 | 31194 ft | 404 kts | 209° |
| 2026-05-07 19:29 | 51.57466 | 11.60132 | 31824 ft | 399 kts | 209° |
| 2026-05-07 19:29 | 51.55025 | 11.58048 | 32478 ft | 394 kts | 209° |
| 2026-05-07 19:29 | 51.52620 | 11.55998 | 33146 ft | 388 kts | 209° |
| 2026-05-07 19:30 | 51.50253 | 11.53983 | 33822 ft | 381 kts | 209° |
| 2026-05-07 19:30 | 51.47927 | 11.52005 | 34440 ft | 374 kts | 209° |
| 2026-05-07 19:30 | 51.45625 | 11.50051 | 34690 ft | 377 kts | 209° |
| 2026-05-07 19:30 | 51.43289 | 11.48069 | 34785 ft | 383 kts | 209° |
| 2026-05-07 19:31 | 51.40893 | 11.46116 | 34906 ft | 390 kts | 206° |
| 2026-05-07 19:31 | 51.38361 | 11.44438 | 35001 ft | 397 kts | 201° |
| 2026-05-07 19:31 | 51.32978 | 11.41786 | 35090 ft | 413 kts | 198° |
| 2026-05-07 19:32 | 51.27350 | 11.39096 | 35088 ft | 431 kts | 198° |
| 2026-05-07 19:32 | 51.21522 | 11.36295 | 35088 ft | 448 kts | 198° |
| 2026-05-07 19:33 | 51.15499 | 11.33403 | 35089 ft | 462 kts | 198° |
| 2026-05-07 19:33 | 51.10328 | 11.30929 | 35087 ft | 463 kts | 198° |
| 2026-05-07 19:34 | 51.04200 | 11.28004 | 35088 ft | 463 kts | 198° |
| 2026-05-07 19:34 | 50.98026 | 11.25066 | 35086 ft | 463 kts | 198° |
| 2026-05-07 19:35 | 50.92036 | 11.21343 | 35098 ft | 461 kts | 208° |
| 2026-05-07 19:35 | 50.86316 | 11.16835 | 35095 ft | 461 kts | 208° |
| 2026-05-07 19:36 | 50.80846 | 11.11575 | 35096 ft | 460 kts | 215° |
| 2026-05-07 19:36 | 50.75521 | 11.05934 | 35091 ft | 460 kts | 215° |
| 2026-05-07 19:37 | 50.70216 | 11.00338 | 34872 ft | 456 kts | 216° |
| 2026-05-07 19:37 | 50.67612 | 10.97493 | 34310 ft | 455 kts | 216° |
| 2026-05-07 19:37 | 50.65022 | 10.94624 | 33476 ft | 455 kts | 216° |
| 2026-05-07 19:38 | 50.62434 | 10.91759 | 32790 ft | 451 kts | 216° |
| 2026-05-07 19:38 | 50.59855 | 10.88919 | 32674 ft | 458 kts | 216° |
| 2026-05-07 19:38 | 50.57154 | 10.86182 | 32551 ft | 464 kts | 208° |
| 2026-05-07 19:38 | 50.54155 | 10.84291 | 32437 ft | 466 kts | 196° |
| 2026-05-07 19:39 | 50.50992 | 10.83419 | 32328 ft | 468 kts | 184° |
| 2026-05-07 19:39 | 50.47735 | 10.83570 | 32209 ft | 468 kts | 175° |
| 2026-05-07 19:39 | 50.44512 | 10.84155 | 31804 ft | 465 kts | 174° |
| 2026-05-07 19:39 | 50.41310 | 10.84752 | 31448 ft | 464 kts | 174° |
| 2026-05-07 19:40 | 50.38077 | 10.85348 | 31345 ft | 470 kts | 174° |
| 2026-05-07 19:40 | 50.34819 | 10.85950 | 31236 ft | 471 kts | 174° |
| 2026-05-07 19:40 | 50.31672 | 10.86537 | 31134 ft | 471 kts | 174° |
| 2026-05-07 19:40 | 50.28328 | 10.87159 | 31068 ft | 470 kts | 174° |
| 2026-05-07 19:41 | 50.21826 | 10.88367 | 31072 ft | 470 kts | 174° |
| 2026-05-07 19:41 | 50.15314 | 10.88950 | 30848 ft | 465 kts | 186° |
| 2026-05-07 19:42 | 50.12167 | 10.88031 | 30291 ft | 459 kts | 198° |
| 2026-05-07 19:42 | 50.09267 | 10.86170 | 29536 ft | 454 kts | 210° |
| 2026-05-07 19:42 | 50.06697 | 10.83407 | 28768 ft | 446 kts | 223° |
| 2026-05-07 19:42 | 50.04589 | 10.79906 | 28013 ft | 440 kts | 234° |
| 2026-05-07 19:43 | 50.02988 | 10.75882 | 27267 ft | 433 kts | 244° |
| 2026-05-07 19:43 | 50.01655 | 10.71698 | 26538 ft | 429 kts | 244° |
| 2026-05-07 19:43 | 50.00323 | 10.67568 | 25840 ft | 425 kts | 244° |
| 2026-05-07 19:43 | 49.98995 | 10.63492 | 25162 ft | 421 kts | 244° |
| 2026-05-07 19:44 | 49.97674 | 10.59467 | 24602 ft | 414 kts | 244° |
| 2026-05-07 19:44 | 49.96375 | 10.55520 | 24496 ft | 413 kts | 243° |
| 2026-05-07 19:44 | 49.95052 | 10.51504 | 24393 ft | 418 kts | 243° |
| 2026-05-07 19:44 | 49.93730 | 10.47502 | 24288 ft | 415 kts | 244° |
| 2026-05-07 19:45 | 49.92415 | 10.43526 | 24191 ft | 414 kts | 244° |
| 2026-05-07 19:45 | 49.91100 | 10.39552 | 24086 ft | 413 kts | 244° |
| 2026-05-07 19:45 | 49.89802 | 10.35632 | 23864 ft | 413 kts | 244° |
| 2026-05-07 19:45 | 49.88489 | 10.31677 | 23628 ft | 411 kts | 244° |
| 2026-05-07 19:46 | 49.87177 | 10.27731 | 23344 ft | 409 kts | 244° |
| 2026-05-07 19:46 | 49.85876 | 10.23824 | 23067 ft | 408 kts | 244° |
| 2026-05-07 19:46 | 49.84590 | 10.19965 | 22795 ft | 406 kts | 244° |
| 2026-05-07 19:46 | 49.83295 | 10.16090 | 22521 ft | 404 kts | 243° |
| 2026-05-07 19:47 | 49.82008 | 10.12240 | 22245 ft | 403 kts | 243° |
| 2026-05-07 19:47 | 49.80719 | 10.08392 | 21925 ft | 401 kts | 243° |
| 2026-05-07 19:47 | 49.79439 | 10.04575 | 21523 ft | 399 kts | 243° |
| 2026-05-07 19:47 | 49.78163 | 10.00776 | 21132 ft | 396 kts | 244° |
| 2026-05-07 19:48 | 49.76895 | 9.97009 | 20741 ft | 393 kts | 244° |
| 2026-05-07 19:48 | 49.75632 | 9.93262 | 20352 ft | 391 kts | 244° |
| 2026-05-07 19:48 | 49.74381 | 9.89552 | 19979 ft | 388 kts | 244° |
| 2026-05-07 19:48 | 49.72943 | 9.86046 | 19595 ft | 388 kts | 231° |
| 2026-05-07 19:49 | 49.70968 | 9.83299 | 19156 ft | 389 kts | 215° |
| 2026-05-07 19:49 | 49.68531 | 9.81500 | 18739 ft | 389 kts | 198° |
| 2026-05-07 19:49 | 49.65864 | 9.80845 | 18303 ft | 390 kts | 182° |
| 2026-05-07 19:49 | 49.63156 | 9.80950 | 17644 ft | 387 kts | 180° |
| 2026-05-07 19:50 | 49.60499 | 9.81195 | 17439 ft | 382 kts | 175° |
| 2026-05-07 19:50 | 49.57837 | 9.81881 | 17332 ft | 390 kts | 171° |
| 2026-05-07 19:50 | 49.55171 | 9.82641 | 17211 ft | 388 kts | 171° |
| 2026-05-07 19:50 | 49.52554 | 9.83375 | 17105 ft | 386 kts | 171° |
| 2026-05-07 19:51 | 49.49879 | 9.84118 | 17069 ft | 386 kts | 172° |
| 2026-05-07 19:51 | 49.47270 | 9.84837 | 17073 ft | 386 kts | 172° |
| 2026-05-07 19:51 | 49.44629 | 9.85564 | 17075 ft | 386 kts | 172° |
| 2026-05-07 19:51 | 49.41977 | 9.86293 | 17074 ft | 386 kts | 172° |
| 2026-05-07 19:52 | 49.39322 | 9.87023 | 17062 ft | 388 kts | 172° |
| 2026-05-07 19:52 | 49.36667 | 9.87753 | 16813 ft | 388 kts | 172° |
| 2026-05-07 19:52 | 49.34018 | 9.88480 | 16449 ft | 383 kts | 172° |
| 2026-05-07 19:52 | 49.31416 | 9.89194 | 15883 ft | 380 kts | 172° |
| 2026-05-07 19:53 | 49.28832 | 9.89903 | 15511 ft | 369 kts | 172° |
| 2026-05-07 19:53 | 49.26338 | 9.90587 | 15059 ft | 361 kts | 171° |
| 2026-05-07 19:53 | 49.23838 | 9.91269 | 14105 ft | 370 kts | 171° |
| 2026-05-07 19:53 | 49.21300 | 9.91944 | 13258 ft | 377 kts | 173° |
| 2026-05-07 19:54 | 49.18745 | 9.91851 | 12612 ft | 360 kts | 193° |
| 2026-05-07 19:54 | 49.16477 | 9.90531 | 12106 ft | 341 kts | 212° |
| 2026-05-07 19:54 | 49.14664 | 9.88281 | 11598 ft | 336 kts | 230° |
| 2026-05-07 19:54 | 49.13318 | 9.85373 | 11099 ft | 333 kts | 238° |
| 2026-05-07 19:55 | 49.12076 | 9.82414 | 10609 ft | 329 kts | 238° |
| 2026-05-07 19:55 | 49.10845 | 9.79502 | 10098 ft | 321 kts | 238° |
| 2026-05-07 19:55 | 49.09652 | 9.76695 | 9601 ft | 310 kts | 238° |
| 2026-05-07 19:55 | 49.08504 | 9.74008 | 9303 ft | 296 kts | 237° |
| 2026-05-07 19:56 | 49.07363 | 9.71342 | 9034 ft | 301 kts | 238° |
| 2026-05-07 19:56 | 49.06237 | 9.68715 | 8775 ft | 296 kts | 238° |
| 2026-05-07 19:56 | 49.04961 | 9.66315 | 8493 ft | 289 kts | 220° |
| 2026-05-07 19:56 | 49.03235 | 9.64800 | 7968 ft | 285 kts | 205° |
| 2026-05-07 19:57 | 49.01409 | 9.63679 | 7389 ft | 281 kts | 202° |
| 2026-05-07 19:57 | 48.99594 | 9.62625 | 6815 ft | 277 kts | 202° |
| 2026-05-07 19:57 | 48.97796 | 9.61538 | 6025 ft | 280 kts | 204° |
| 2026-05-07 19:57 | 48.95966 | 9.60375 | 5054 ft | 289 kts | 204° |
| 2026-05-07 19:58 | 48.94171 | 9.59197 | 4879 ft | 269 kts | 204° |
| 2026-05-07 19:58 | 48.92538 | 9.58114 | 4757 ft | 250 kts | 205° |
| 2026-05-07 19:58 | 48.91002 | 9.57092 | 4635 ft | 233 kts | 205° |
| 2026-05-07 19:58 | 48.89485 | 9.56403 | 4498 ft | 226 kts | 181° |
| 2026-05-07 19:59 | 48.87977 | 9.56974 | 4388 ft | 226 kts | 148° |
| 2026-05-07 19:59 | 48.86918 | 9.58697 | 4277 ft | 226 kts | 114° |
| 2026-05-07 19:59 | 48.86331 | 9.60910 | 4168 ft | 226 kts | 109° |
| 2026-05-07 19:59 | 48.85828 | 9.63165 | 4051 ft | 224 kts | 105° |
| 2026-05-07 20:00 | 48.85498 | 9.65444 | 3989 ft | 223 kts | 97° |
| 2026-05-07 20:00 | 48.85451 | 9.67804 | 3992 ft | 224 kts | 85° |
| 2026-05-07 20:00 | 48.85604 | 9.70165 | 3991 ft | 224 kts | 83° |
| 2026-05-07 20:00 | 48.85863 | 9.72496 | 3992 ft | 224 kts | 75° |
| 2026-05-07 20:01 | 48.86212 | 9.74804 | 3995 ft | 224 kts | 79° |
| 2026-05-07 20:01 | 48.86424 | 9.77143 | 3992 ft | 224 kts | 84° |
| 2026-05-07 20:01 | 48.86552 | 9.79519 | 4153 ft | 229 kts | 85° |
| 2026-05-07 20:01 | 48.86681 | 9.81974 | 4723 ft | 241 kts | 85° |
| 2026-05-07 20:02 | 48.86817 | 9.84531 | 5102 ft | 245 kts | 85° |
| 2026-05-07 20:02 | 48.86839 | 9.87078 | 5209 ft | 241 kts | 101° |
| 2026-05-07 20:02 | 48.86144 | 9.89380 | 5329 ft | 242 kts | 132° |
| 2026-05-07 20:02 | 48.84831 | 9.90982 | 5451 ft | 242 kts | 147° |
| 2026-05-07 20:03 | 48.83442 | 9.92378 | 5562 ft | 242 kts | 148° |
| 2026-05-07 20:03 | 48.82035 | 9.93768 | 5672 ft | 240 kts | 148° |
| 2026-05-07 20:03 | 48.80684 | 9.95112 | 5742 ft | 224 kts | 148° |
| 2026-05-07 20:03 | 48.79383 | 9.96415 | 5759 ft | 226 kts | 148° |
| 2026-05-07 20:04 | 48.78064 | 9.97741 | 6164 ft | 228 kts | 148° |
| 2026-05-07 20:04 | 48.76725 | 9.99090 | 6541 ft | 230 kts | 148° |
| 2026-05-07 20:04 | 48.75415 | 10.00414 | 6642 ft | 225 kts | 148° |
| 2026-05-07 20:04 | 48.74103 | 10.01735 | 6747 ft | 226 kts | 148° |
| 2026-05-07 20:05 | 48.72789 | 10.03055 | 6837 ft | 227 kts | 148° |
| 2026-05-07 20:05 | 48.71468 | 10.04383 | 6956 ft | 233 kts | 148° |
| 2026-05-07 20:05 | 48.70063 | 10.05789 | 6995 ft | 248 kts | 148° |
| 2026-05-07 20:05 | 48.68637 | 10.07217 | 6994 ft | 241 kts | 150° |
| 2026-05-07 20:06 | 48.67078 | 10.08005 | 7001 ft | 243 kts | 181° |
| 2026-05-07 20:06 | 48.65464 | 10.07481 | 6997 ft | 236 kts | 211° |
| 2026-05-07 20:06 | 48.64301 | 10.05812 | 6925 ft | 230 kts | 242° |
| 2026-05-07 20:06 | 48.63889 | 10.03504 | 6586 ft | 232 kts | 272° |
| 2026-05-07 20:07 | 48.64365 | 10.01174 | 6151 ft | 238 kts | 303° |
| 2026-05-07 20:07 | 48.65590 | 9.99340 | 5625 ft | 260 kts | 322° |
| 2026-05-07 20:07 | 48.67106 | 9.97765 | 5088 ft | 267 kts | 326° |
| 2026-05-07 20:07 | 48.68633 | 9.96198 | 4556 ft | 271 kts | 323° |
| 2026-05-07 20:08 | 48.69820 | 9.94060 | 4299 ft | 261 kts | 295° |
| 2026-05-07 20:08 | 48.70216 | 9.91456 | 4203 ft | 248 kts | 276° |
| 2026-05-07 20:08 | 48.70358 | 9.88905 | 4084 ft | 238 kts | 275° |
| 2026-05-07 20:08 | 48.70503 | 9.86305 | 3999 ft | 251 kts | 275° |
| 2026-05-07 20:09 | 48.70671 | 9.83631 | 3989 ft | 257 kts | 276° |
| 2026-05-07 20:09 | 48.70851 | 9.80970 | 3991 ft | 257 kts | 276° |
| 2026-05-07 20:09 | 48.71043 | 9.78272 | 3990 ft | 257 kts | 276° |
| 2026-05-07 20:10 | 48.71432 | 9.72905 | 3992 ft | 257 kts | 277° |
| 2026-05-07 20:10 | 48.71627 | 9.70211 | 3993 ft | 257 kts | 276° |
| 2026-05-07 20:10 | 48.71820 | 9.67523 | 3993 ft | 257 kts | 276° |
| 2026-05-07 20:10 | 48.72012 | 9.64829 | 3993 ft | 257 kts | 276° |
| 2026-05-07 20:11 | 48.72204 | 9.62141 | 3990 ft | 257 kts | 276° |
| 2026-05-07 20:11 | 48.72399 | 9.59395 | 3995 ft | 276 kts | 276° |
| 2026-05-07 20:11 | 48.72608 | 9.56453 | 3990 ft | 282 kts | 276° |
| 2026-05-07 20:11 | 48.72816 | 9.53491 | 3993 ft | 283 kts | 276° |
| 2026-05-07 20:12 | 48.73022 | 9.50564 | 3988 ft | 283 kts | 276° |
| 2026-05-07 20:12 | 48.73230 | 9.47587 | 3986 ft | 275 kts | 276° |
| 2026-05-07 20:12 | 48.73173 | 9.44831 | 3946 ft | 258 kts | 261° |
| 2026-05-07 20:12 | 48.72793 | 9.42236 | 3617 ft | 246 kts | 255° |
| 2026-05-07 20:13 | 48.72334 | 9.39875 | 3298 ft | 221 kts | 254° |
| 2026-05-07 20:13 | 48.71925 | 9.37694 | 3048 ft | 209 kts | 254° |
| 2026-05-07 20:13 | 48.71548 | 9.35713 | 2789 ft | 187 kts | 255° |
| 2026-05-07 20:13 | 48.71192 | 9.33834 | 2518 ft | 180 kts | 254° |
| 2026-05-07 20:14 | 48.70871 | 9.32141 | 2275 ft | 158 kts | 254° |
| 2026-05-07 20:14 | 48.70579 | 9.30598 | 2056 ft | 146 kts | 254° |
| 2026-05-07 20:14 | 48.70313 | 9.29193 | 1856 ft | 133 kts | 254° |
| 2026-05-07 20:14 | 48.70061 | 9.27862 | 1686 ft | 133 kts | 255° |
| 2026-05-07 20:15 | 48.69807 | 9.26535 | 1512 ft | 131 kts | 253° |
| 2026-05-07 20:15 | 48.69560 | 9.25211 | 1401 ft | 126 kts | 255° |
| 2026-05-07 20:15 | 48.69335 | 9.24002 | 1286 ft | 114 kts | 255° |
| 2026-05-07 20:15 | 48.69147 | 9.22999 | 1289 ft | 78 kts | 253° |
| 2026-05-07 20:16 | 48.69013 | 9.22335 | 1285 ft | 62 kts | 252° |
| 2026-05-07 20:16 | 48.68893 | 9.21713 | 1287 ft | 61 kts | 254° |
| 2026-05-07 20:16 | 48.68823 | 9.21167 | 1288 ft | 50 kts | 269° |
| 2026-05-07 20:16 | 48.68877 | 9.20725 | 1286 ft | 17 kts | 280° |
| 2026-05-07 20:17 | 48.68894 | 9.20681 | 1287 ft | 12 kts | 322° |
| 2026-05-07 20:17 | 48.68979 | 9.20607 | 1287 ft | 14 kts | 313° |
| 2026-05-07 20:17 | 48.69054 | 9.20495 | 1289 ft | 11 kts | 321° |
| 2026-05-07 20:17 | 48.69050 | 9.20393 | 1286 ft | 12 kts | 257° |
| 2026-05-07 20:18 | 48.69024 | 9.20239 | 1286 ft | 18 kts | 255° |
| 2026-05-07 20:18 | 48.68981 | 9.20027 | 1286 ft | 23 kts | 249° |
| 2026-05-07 20:18 | 48.68939 | 9.19914 | 1288 ft | 10 kts | 201° |
| 2026-05-07 20:18 | 48.68921 | 9.19882 | 1289 ft | 0 kts | 251° |
| 2026-05-07 20:19 | 48.68901 | 9.19810 | 1289 ft | 9 kts | 244° |
| 2026-05-07 20:19 | 48.68890 | 9.19776 | 1287 ft | 8 kts | 244° |
| 2026-05-07 20:19 | 48.68847 | 9.19618 | 1285 ft | 14 kts | 272° |
| 2026-05-07 20:19 | 48.68873 | 9.19575 | 1286 ft | 5 kts | 339° |
| 2026-05-07 20:20 | 48.68888 | 9.19574 | 1286 ft | 4 kts | 1° |
| 2026-05-07 20:20 | 48.68911 | 9.19583 | 1285 ft | 4 kts | 15° |
| 2026-05-07 20:20 | 48.68926 | 9.19579 | 1287 ft | 0 kts | 346° |